Time;durP1;ratioP1;P1;durP2;ratioP2;P2;SDS_P1;SDS_P2;PMS_P1;PMS_P2;Temp;Humidity;BMP_temperature;BMP_pressure;BME280_temperature;BME280_humidity;BME280_pressure;Samples;Min_cycle;Max_cycle;Signal;HPM_P1;HPM_P2
2023/07/27 00:01:01;;;;;;;6.35;4.03;;;12.10;99.90;;;12.04;100.00;100201.28;5020677;28;20038;-84
2023/07/27 00:03:26;;;;;;;7.95;5.13;;;12.10;99.90;;;12.00;100.00;100187.22;5021394;28;20030;-84
2023/07/27 00:05:52;;;;;;;6.82;4.03;;;12.10;99.90;;;12.01;100.00;100199.03;5021371;28;20044;-86
2023/07/27 00:08:18;;;;;;;7.20;4.40;;;12.10;99.90;;;11.98;100.00;100191.28;5025680;28;20148;-86
2023/07/27 00:10:44;;;;;;;7.90;4.53;;;12.10;99.90;;;11.97;100.00;100189.63;5026606;28;20040;-85
2023/07/27 00:13:09;;;;;;;7.00;4.10;;;12.10;99.90;;;11.98;100.00;100197.56;5023493;28;20084;-83
2023/07/27 00:15:35;;;;;;;7.25;4.60;;;12.00;99.90;;;11.95;100.00;100192.56;5030711;28;20049;-86
2023/07/27 00:18:01;;;;;;;8.27;4.70;;;12.10;99.90;;;12.01;100.00;100185.38;5022092;28;20099;-85
2023/07/27 00:20:27;;;;;;;7.80;4.50;;;12.00;99.90;;;12.03;100.00;100192.25;5016223;28;20038;-83
2023/07/27 00:22:53;;;;;;;7.65;4.70;;;12.10;99.90;;;11.88;100.00;100165.34;5016715;28;20034;-83
2023/07/27 00:25:19;;;;;;;7.97;4.80;;;12.10;99.90;;;12.03;100.00;100188.69;5015653;28;20130;-85
2023/07/27 00:27:44;;;;;;;7.45;5.15;;;12.00;99.90;;;12.02;100.00;100187.03;5015515;28;20445;-86
2023/07/27 00:30:12;;;;;;;9.85;4.85;;;12.00;99.90;;;11.96;100.00;100183.31;5015214;28;20040;-84
2023/07/27 00:32:37;;;;;;;7.95;4.85;;;12.00;99.90;;;11.92;100.00;100182.94;5014102;28;20033;-84
2023/07/27 00:35:05;;;;;;;9.30;5.10;;;11.90;99.90;;;11.87;100.00;100180.09;5014853;28;20181;-85
2023/07/27 00:37:30;;;;;;;8.85;5.05;;;11.90;99.90;;;11.76;100.00;100164.53;5015714;28;20034;-84
2023/07/27 00:39:56;;;;;;;10.13;5.50;;;11.80;99.90;;;11.78;100.00;100173.31;5015080;28;20022;-84
2023/07/27 00:42:22;;;;;;;9.02;5.65;;;11.80;99.90;;;11.74;100.00;100161.19;5019987;28;20034;-84
2023/07/27 00:44:47;;;;;;;8.52;5.45;;;11.70;99.90;;;11.70;100.00;100157.28;5014863;28;20059;-84
2023/07/27 00:47:13;;;;;;;9.77;5.50;;;11.70;99.90;;;11.67;100.00;100150.38;5021698;28;20539;-85
2023/07/27 00:49:39;;;;;;;9.10;5.72;;;11.70;99.90;;;11.64;100.00;100139.91;5021115;28;20478;-84
2023/07/27 00:52:07;;;;;;;8.48;5.55;;;11.70;99.90;;;11.68;100.00;100156.69;5014008;28;20025;-85
2023/07/27 00:54:34;;;;;;;;;;;11.60;99.90;;;11.65;100.00;100147.88;5016206;28;20124;-83
2023/07/27 00:57:01;;;;;;;8.60;5.38;;;11.70;99.90;;;11.71;100.00;100139.81;5030172;28;19917;-86
2023/07/27 00:59:28;;;;;;;9.13;6.00;;;11.70;99.90;;;11.70;100.00;100138.16;5017514;28;20037;-83
2023/07/27 01:01:54;;;;;;;10.93;5.85;;;11.70;99.90;;;11.75;100.00;100135.53;5015292;28;20037;-86
2023/07/27 01:04:21;;;;;;;11.35;5.50;;;11.80;99.90;;;11.77;100.00;100127.94;5014428;28;20113;-85
2023/07/27 01:06:47;;;;;;;9.15;5.45;;;11.80;99.90;;;11.79;100.00;100128.53;5012971;28;20034;-85
2023/07/27 01:09:13;;;;;;;10.05;5.88;;;11.80;99.90;;;11.83;100.00;100131.63;5019014;28;20041;-85
2023/07/27 01:12:20;;;;;;;8.82;6.20;;;11.80;99.90;;;11.88;100.00;100139.94;5019138;28;20095;-85
2023/07/27 01:15:10;;;;;;;10.05;5.53;;;11.90;99.90;;;11.87;100.00;100133.63;5028226;28;20038;-84
2023/07/27 01:17:52;;;;;;;11.77;6.40;;;11.90;99.90;;;11.92;100.00;100128.25;5030749;28;20104;-86
2023/07/27 01:20:46;;;;;;;10.38;6.68;;;12.00;99.90;;;11.99;100.00;100139.09;5036411;28;20101;-86
2023/07/27 01:23:44;;;;;;;9.55;5.95;;;12.10;99.90;;;12.02;100.00;100135.91;5021206;28;20021;-85
2023/07/27 01:26:55;;;;;;;10.73;5.90;;;12.10;99.90;;;12.04;100.00;100135.66;5012437;28;20034;-83
2023/07/27 01:30:00;;;;;;;8.95;6.15;;;12.10;99.90;;;12.05;100.00;100140.88;5023269;28;20040;-85
2023/07/27 01:32:33;;;;;;;11.23;6.13;;;12.10;99.90;;;11.97;100.00;100130.28;5034710;28;20030;-86
2023/07/27 01:35:03;;;;;;;10.13;6.07;;;12.00;99.90;;;11.90;100.00;100122.19;5034273;28;20080;-85
2023/07/27 01:37:31;;;;;;;9.45;5.97;;;12.00;99.90;;;11.83;100.00;100109.75;5027135;28;20034;-86
2023/07/27 01:40:01;;;;;;;10.85;6.50;;;12.00;99.90;;;11.88;100.00;100118.88;5013349;28;20041;-85
2023/07/27 01:42:30;;;;;;;10.02;6.13;;;12.00;99.90;;;11.84;100.00;100108.69;5014295;28;20084;-87
2023/07/27 01:44:57;;;;;;;10.82;6.80;;;11.90;99.90;;;11.85;100.00;100104.88;5018026;28;20066;-86
2023/07/27 01:47:25;;;;;;;10.18;6.82;;;11.90;99.90;;;11.88;100.00;100094.28;5014074;28;20122;-85
2023/07/27 01:49:53;;;;;;;8.93;6.22;;;11.90;99.90;;;11.94;100.00;100095.25;5013033;28;20064;-86
2023/07/27 01:52:21;;;;;;;11.05;6.88;;;12.00;99.90;;;11.99;100.00;100098.06;5018961;28;20038;-86
2023/07/27 01:54:49;;;;;;;12.32;6.85;;;12.00;99.90;;;12.04;100.00;100091.94;5014491;28;20382;-85
2023/07/27 01:57:17;;;;;;;9.10;6.32;;;12.10;99.90;;;12.05;100.00;100086.22;5014375;28;20485;-86
2023/07/27 01:59:44;;;;;;;10.30;6.95;;;12.10;99.90;;;12.14;100.00;100096.78;5015309;28;20029;-86
2023/07/27 02:02:13;;;;;;;9.93;6.50;;;12.20;99.90;;;12.22;100.00;100102.72;5030263;28;20486;-86
2023/07/27 02:04:39;;;;;;;9.10;6.07;;;12.30;99.90;;;12.26;100.00;100099.50;5013964;28;20033;-87
2023/07/27 02:07:05;;;;;;;9.80;6.93;;;12.30;99.90;;;12.37;100.00;100102.22;5030649;28;20496;-84
2023/07/27 02:09:31;;;;;;;9.80;6.30;;;12.40;99.90;;;12.30;100.00;100090.56;5014091;28;20065;-85
2023/07/27 02:12:10;;;;;;;9.77;6.22;;;12.50;99.90;;;12.50;100.00;100106.56;5029155;28;20030;-85
2023/07/27 02:14:57;;;;;;;9.60;6.43;;;12.50;99.90;;;12.54;100.00;100111.56;5018158;28;20045;-85
2023/07/27 02:17:48;;;;;;;9.50;5.93;;;12.60;99.90;;;12.54;100.00;100115.09;5028434;28;20041;-86
2023/07/27 02:20:16;;;;;;;9.18;5.50;;;12.60;99.90;;;12.59;100.00;100115.19;5020944;28;20030;-87
2023/07/27 02:22:44;;;;;;;10.50;5.55;;;12.60;99.90;;;12.70;100.00;100116.22;5016440;28;20034;-83
2023/07/27 02:25:11;;;;;;;8.90;5.68;;;12.70;99.90;;;12.72;100.00;100116.81;5026770;28;20088;-85
2023/07/27 02:27:37;;;;;;;7.80;5.30;;;12.80;99.90;;;12.70;100.00;100110.75;5026868;28;20048;-85
2023/07/27 02:30:04;;;;;;;9.18;5.22;;;12.80;99.90;;;12.76;100.00;100114.44;5012016;28;20233;-85
2023/07/27 02:32:30;;;;;;;7.50;5.28;;;12.80;99.90;;;12.76;100.00;100119.91;5017695;28;20040;-86
2023/07/27 02:34:56;;;;;;;7.78;5.47;;;12.90;99.90;;;12.87;100.00;100126.41;5013171;28;20508;-85
2023/07/27 02:37:23;;;;;;;7.75;5.28;;;12.90;99.90;;;12.83;100.00;100134.28;5024797;28;20375;-85
2023/07/27 02:39:48;;;;;;;9.15;5.35;;;12.90;99.90;;;12.95;100.00;100136.97;5013121;28;20041;-85
2023/07/27 02:42:14;;;;;;;7.53;4.90;;;13.00;99.90;;;12.93;100.00;100130.91;5013685;28;20060;-86
2023/07/27 02:44:41;;;;;;;8.75;4.90;;;13.00;99.90;;;13.01;100.00;100141.47;5026233;28;20028;-85
2023/07/27 02:47:07;;;;;;;7.22;5.18;;;13.00;99.90;;;13.02;100.00;100134.91;5020748;28;20048;-87
2023/07/27 02:49:33;;;;;;;9.32;4.82;;;13.00;99.90;;;12.94;100.00;100132.56;5023252;28;20034;-86
2023/07/27 02:51:59;;;;;;;9.93;5.25;;;13.00;99.90;;;12.80;100.00;100121.91;5014786;28;20034;-86
2023/07/27 02:54:25;;;;;;;9.48;5.38;;;12.90;99.90;;;12.75;100.00;100116.34;5022055;28;20037;-87
2023/07/27 02:56:52;;;;;;;7.70;5.28;;;12.80;99.90;;;12.61;100.00;100110.34;5028850;28;20022;-87
2023/07/27 02:59:24;;;;;;;9.40;6.47;;;12.70;99.90;;;12.46;100.00;100102.63;5012117;28;20056;-87
2023/07/27 03:01:51;;;;;;;9.77;6.60;;;12.50;99.90;;;12.43;100.00;100102.31;5012072;28;20030;-87
2023/07/27 03:04:22;;;;;;;10.02;6.70;;;12.50;99.90;;;12.34;100.00;100102.69;5029891;28;20444;-87
2023/07/27 03:06:48;;;;;;;10.30;6.57;;;12.40;99.90;;;12.28;100.00;100100.09;5025754;28;20041;-86
2023/07/27 03:09:17;;;;;;;10.30;6.20;;;12.30;99.90;;;12.25;100.00;100095.09;5011897;28;20034;-87
2023/07/27 03:11:42;;;;;;;9.57;6.28;;;12.30;99.90;;;12.21;100.00;100089.28;5020150;28;20036;-87
2023/07/27 03:14:08;;;;;;;9.38;6.50;;;12.20;99.90;;;12.06;100.00;100082.41;5012004;28;20038;-86
2023/07/27 03:16:34;;;;;;;11.73;6.63;;;12.10;99.90;;;12.05;100.00;100083.47;5015561;28;20033;-86
2023/07/27 03:19:00;;;;;;;10.57;6.97;;;12.10;99.90;;;11.93;100.00;100067.09;5014198;28;20046;-86
2023/07/27 03:21:26;;;;;;;9.77;6.97;;;12.00;99.90;;;11.76;100.00;100060.69;5012655;28;20034;-86
2023/07/27 03:23:52;;;;;;;12.35;7.75;;;11.80;99.90;;;11.55;100.00;100032.91;5017882;28;20048;-87
2023/07/27 03:26:18;;;;;;;10.50;7.63;;;11.70;99.90;;;11.45;100.00;100019.81;5038843;28;20034;-86
2023/07/27 03:28:44;;;;;;;11.77;7.70;;;11.60;99.90;;;11.50;100.00;100016.38;5021812;28;20083;-87
2023/07/27 03:31:28;;;;;;;12.15;8.30;;;11.60;99.90;;;11.47;100.00;100006.75;5030021;28;20041;-87
2023/07/27 03:33:54;;;;;;;11.65;7.93;;;11.50;99.90;;;11.39;100.00;99998.94;5032477;28;20033;-87
2023/07/27 03:36:21;;;;;;;11.82;7.63;;;11.50;99.90;;;11.39;100.00;100004.41;5017314;28;20049;-87
2023/07/27 03:38:47;;;;;;;10.95;7.63;;;11.50;99.90;;;11.42;100.00;99997.66;5019528;28;20569;-86
2023/07/27 03:41:14;;;;;;;11.35;7.95;;;11.50;99.90;;;11.45;100.00;99994.44;5023904;28;20438;-87
2023/07/27 03:43:40;;;;;;;11.90;7.97;;;11.50;99.90;;;11.49;100.00;99990.16;5027894;28;20476;-87
2023/07/27 03:46:06;;;;;;;12.98;8.07;;;11.50;99.90;;;11.53;100.00;99999.53;5029132;28;20103;-86
2023/07/27 03:48:31;;;;;;;11.18;7.05;;;11.50;99.90;;;11.59;100.00;99995.81;5022808;28;20038;-88
2023/07/27 03:51:02;;;;;;;11.25;7.50;;;11.60;99.90;;;11.65;100.00;99997.59;5041926;28;20397;-86
2023/07/27 03:53:29;;;;;;;10.65;7.68;;;11.60;99.90;;;11.72;100.00;99996.66;5026447;28;20133;-87
2023/07/27 03:55:55;;;;;;;11.82;7.13;;;11.70;99.90;;;11.76;100.00;99995.91;5055210;28;20045;-87
2023/07/27 03:58:22;;;;;;;10.43;6.88;;;11.70;99.90;;;11.82;100.00;99987.84;5052992;28;20105;-87
2023/07/27 04:00:47;;;;;;;10.55;7.07;;;11.70;99.90;;;11.87;100.00;99994.22;5036115;28;20033;-85
2023/07/27 04:03:13;;;;;;;9.55;6.78;;;11.80;99.90;;;11.88;100.00;99986.88;5056839;28;20081;-87
2023/07/27 04:05:39;;;;;;;11.25;7.00;;;11.80;99.90;;;11.83;100.00;99978.56;5036785;28;20065;-85
2023/07/27 04:08:05;;;;;;;10.57;7.00;;;11.80;99.90;;;11.82;100.00;99977.72;5034224;28;20088;-87
2023/07/27 04:10:30;;;;;;;11.50;7.20;;;11.80;99.90;;;11.82;100.00;99974.19;5036369;28;20038;-86
2023/07/27 04:12:57;;;;;;;10.20;7.38;;;11.80;99.90;;;11.87;100.00;99975.09;5016358;28;20044;-86
2023/07/27 04:15:23;;;;;;;9.70;6.70;;;11.90;99.90;;;12.00;100.00;99976.72;5017344;28;20386;-85
2023/07/27 04:17:49;;;;;;;10.43;7.35;;;12.00;99.90;;;12.16;100.00;99982.53;5015117;28;20307;-84
2023/07/27 04:20:15;;;;;;;8.70;6.40;;;12.20;99.90;;;12.33;100.00;99979.84;5017474;28;20037;-85
2023/07/27 04:22:40;;;;;;;8.43;5.80;;;12.40;99.90;;;12.46;100.00;100000.59;5033082;28;20038;-84
2023/07/27 04:25:07;;;;;;;11.27;6.57;;;12.50;99.90;;;12.60;100.00;99999.22;5016102;28;20030;-84
2023/07/27 04:27:33;;;;;;;7.75;5.88;;;12.60;99.90;;;12.74;100.00;100007.13;5018296;28;20060;-82
2023/07/27 04:29:58;;;;;;;12.43;6.25;;;12.80;99.90;;;12.86;100.00;100016.06;5018424;28;20030;-83
2023/07/27 04:32:24;;;;;;;8.52;5.72;;;13.00;99.90;;;12.96;100.00;100020.88;5025283;28;20037;-81
2023/07/27 04:34:50;;;;;;;8.40;5.88;;;13.10;99.90;;;13.12;100.00;100029.38;4997118;28;20386;-79
2023/07/27 04:37:16;;;;;;;8.68;5.43;;;13.20;99.90;;;13.25;100.00;100031.75;5015501;28;20092;-82
2023/07/27 04:39:41;;;;;;;7.20;5.05;;;13.30;99.90;;;13.29;100.00;100016.50;5015146;28;20493;-82
2023/07/27 04:42:07;;;;;;;7.47;4.70;;;13.50;99.90;;;13.48;100.00;100033.53;5024410;28;20056;-84
2023/07/27 04:44:33;;;;;;;7.70;4.88;;;13.60;99.90;;;13.64;100.00;100036.47;5036642;28;20033;-80
2023/07/27 04:46:59;;;;;;;8.98;4.90;;;13.70;99.90;;;13.75;100.00;100034.72;5023888;28;20466;-79
2023/07/27 04:49:25;;;;;;;10.00;4.88;;;13.80;99.90;;;13.92;100.00;100026.44;5052586;28;20037;-79
2023/07/27 04:51:50;;;;;;;8.20;4.72;;;13.90;99.90;;;14.06;100.00;100043.38;5027259;28;20037;-78
2023/07/27 04:54:16;;;;;;;7.35;4.50;;;14.10;99.90;;;14.14;100.00;100022.88;5029394;28;20485;-82
2023/07/27 04:56:42;;;;;;;7.15;4.10;;;14.20;99.90;;;14.28;100.00;100026.91;5029119;28;20029;-81
2023/07/27 04:59:07;;;;;;;6.93;3.90;;;14.30;99.90;;;14.44;100.00;100038.88;5028390;28;20042;-79
2023/07/27 05:01:33;;;;;;;5.95;3.72;;;14.50;99.90;;;14.57;100.00;100036.78;5031610;28;20033;-80
2023/07/27 05:03:59;;;;;;;5.85;3.42;;;14.60;99.90;;;14.71;100.00;100031.75;5028677;28;20477;-82
2023/07/27 05:06:25;;;;;;;6.57;3.55;;;14.70;99.90;;;14.80;100.00;100044.75;5040498;28;20030;-81
2023/07/27 05:08:50;;;;;;;6.18;3.40;;;14.90;99.90;;;14.87;100.00;100044.53;5026681;28;20092;-84
2023/07/27 05:11:16;;;;;;;6.75;3.65;;;14.90;99.90;;;14.88;100.00;100040.69;5029677;28;20029;-84
2023/07/27 05:13:42;;;;;;;8.63;4.00;;;15.00;99.90;;;14.82;100.00;100028.03;5029514;28;20038;-84
2023/07/27 05:16:07;;;;;;;6.25;3.78;;;15.00;99.90;;;14.72;100.00;100031.50;5029804;28;20037;-83
2023/07/27 05:18:33;;;;;;;8.30;4.68;;;14.90;99.90;;;14.69;100.00;100026.50;5026759;28;20046;-82
2023/07/27 05:20:59;;;;;;;5.50;3.70;;;14.90;99.90;;;14.37;100.00;99989.66;5020906;28;20397;-82
2023/07/27 05:23:25;;;;;;;5.13;3.75;;;14.90;99.90;;;14.66;100.00;100013.28;5014523;28;20069;-79
2023/07/27 05:25:51;;;;;;;6.45;3.80;;;14.90;99.90;;;14.78;100.00;100026.88;5014871;28;20057;-79
2023/07/27 05:28:17;;;;;;;7.30;3.60;;;14.90;99.90;;;14.89;100.00;100039.63;5024839;28;20477;-81
2023/07/27 05:30:42;;;;;;;7.20;3.67;;;14.90;99.90;;;14.99;100.00;100036.13;5020082;28;20065;-81
2023/07/27 05:33:08;;;;;;;6.85;3.40;;;15.00;99.90;;;14.98;100.00;100039.13;5016868;28;20113;-82
2023/07/27 05:35:34;;;;;;;5.20;3.13;;;15.00;99.90;;;15.09;100.00;100049.94;5013878;28;20354;-81
2023/07/27 05:38:00;;;;;;;5.18;3.13;;;15.10;99.90;;;15.10;100.00;100051.59;5016016;28;20072;-83
2023/07/27 05:40:26;;;;;;;6.50;3.30;;;15.20;99.90;;;15.24;100.00;100053.91;5019099;28;20030;-80
2023/07/27 05:42:51;;;;;;;4.22;2.95;;;15.30;99.90;;;15.30;100.00;100055.59;5016360;28;20481;-83
2023/07/27 05:45:17;;;;;;;5.55;3.28;;;15.40;99.90;;;15.42;100.00;100051.88;5025433;28;20421;-82
2023/07/27 05:47:43;;;;;;;5.65;3.00;;;15.40;99.90;;;15.41;100.00;100053.78;5017945;28;20037;-86
2023/07/27 05:50:09;;;;;;;7.43;3.38;;;15.40;99.90;;;15.34;100.00;100056.75;5014692;28;20030;-85
2023/07/27 05:52:35;;;;;;;6.07;3.30;;;15.40;99.90;;;15.37;100.00;100050.72;5019254;28;20132;-83
2023/07/27 05:55:01;;;;;;;6.28;3.10;;;15.50;99.90;;;15.48;100.00;100054.38;5026511;28;20061;-83
2023/07/27 05:57:27;;;;;;;4.75;3.00;;;15.50;99.90;;;15.47;100.00;100049.16;5022323;28;20038;-81
2023/07/27 05:59:53;;;;;;;5.80;2.95;;;15.50;99.90;;;15.51;100.00;100053.84;5022619;28;20045;-85
2023/07/27 06:02:19;;;;;;;7.18;3.00;;;15.50;99.90;;;15.45;100.00;100048.59;5026047;28;20044;-86
2023/07/27 06:04:45;;;;;;;4.68;3.13;;;15.50;99.90;;;15.43;100.00;100045.28;5014961;28;20040;-81
2023/07/27 06:07:11;;;;;;;5.38;2.92;;;15.50;99.90;;;15.39;100.00;100048.56;5018206;28;20026;-81
2023/07/27 06:09:37;;;;;;;6.70;3.30;;;15.50;99.90;;;15.50;100.00;100056.88;5012238;28;20061;-83
2023/07/27 06:12:11;;;;;;;5.50;3.15;;;15.50;99.90;;;15.27;100.00;100039.66;5027253;28;20080;-84
2023/07/27 06:14:40;;;;;;;8.10;3.05;;;15.40;99.90;;;15.33;100.00;100057.03;5014514;28;20076;-82
2023/07/27 06:17:06;;;;;;;5.20;3.13;;;15.40;99.90;;;15.29;100.00;100061.38;5012710;28;20084;-83
2023/07/27 06:19:33;;;;;;;4.53;3.03;;;15.40;99.90;;;15.31;100.00;100054.53;5012028;28;20057;-80
2023/07/27 06:21:59;;;;;;;5.63;3.30;;;15.40;99.90;;;15.36;100.00;100049.06;5013715;28;20558;-81
2023/07/27 06:24:24;;;;;;;4.68;3.00;;;15.50;99.90;;;15.38;100.00;100046.91;5015172;28;20137;-82
2023/07/27 06:26:50;;;;;;;4.30;2.88;;;15.50;99.90;;;15.42;100.00;100051.88;5014282;28;20594;-81
2023/07/27 06:29:16;;;;;;;6.40;3.20;;;15.50;99.90;;;15.47;100.00;100043.66;5018388;28;20045;-81
2023/07/27 06:31:42;;;;;;;6.38;3.25;;;15.50;99.90;;;15.50;100.00;100041.19;5042427;28;20030;-82
2023/07/27 06:34:07;;;;;;;5.63;3.10;;;15.60;99.90;;;15.47;100.00;100038.16;5022901;28;20045;-81
2023/07/27 06:36:33;;;;;;;5.43;3.15;;;15.60;99.90;;;15.47;100.00;100032.66;5016070;28;20620;-82
2023/07/27 06:38:59;;;;;;;5.93;3.03;;;15.60;99.90;;;15.66;100.00;100038.53;5014040;28;20394;-81
2023/07/27 06:41:25;;;;;;;5.57;2.60;;;15.70;99.90;;;15.80;100.00;100030.66;5017168;28;20049;-82
2023/07/27 06:43:52;;;;;;;4.82;2.90;;;15.80;99.90;;;15.86;100.00;100043.31;5013313;28;20088;-84
2023/07/27 06:46:19;;;;;;;6.03;3.05;;;16.00;99.90;;;16.03;100.00;100036.84;5012908;28;20417;-85
2023/07/27 06:48:48;;;;;;;5.80;2.92;;;16.10;99.90;;;16.05;100.00;100038.25;5014176;28;20104;-84
2023/07/27 06:51:14;;;;;;;9.18;3.30;;;16.20;99.90;;;16.06;100.00;100033.56;5015716;28;20129;-81
2023/07/27 06:53:39;;;;;;;6.20;3.22;;;16.20;99.90;;;16.14;100.00;100033.03;5015963;28;20061;-83
2023/07/27 06:56:06;;;;;;;6.28;2.75;;;16.30;99.90;;;16.20;100.00;100040.22;5038393;28;20092;-86
2023/07/27 06:58:32;;;;;;;5.35;2.72;;;16.30;99.90;;;16.39;100.00;100042.47;5025494;28;20037;-81
2023/07/27 07:00:58;;;;;;;5.72;2.65;;;16.40;99.90;;;16.33;100.00;100047.16;5023125;28;20490;-86
2023/07/27 07:03:25;;;;;;;4.33;2.70;;;16.50;99.90;;;16.43;100.00;100040.81;5034698;28;20143;-85
2023/07/27 07:05:54;;;;;;;4.60;2.67;;;16.50;99.90;;;16.35;100.00;100047.72;5031407;28;20034;-83
2023/07/27 07:08:20;;;;;;;6.00;2.75;;;16.50;99.90;;;16.30;100.00;100041.34;5035687;28;20057;-83
2023/07/27 07:10:46;;;;;;;6.07;2.80;;;16.40;99.90;;;16.13;100.00;100033.31;5024136;28;20033;-78
2023/07/27 07:13:12;;;;;;;5.07;2.83;;;16.40;99.90;;;16.03;100.00;100034.91;5026443;28;20065;-76
2023/07/27 07:15:38;;;;;;;6.60;2.90;;;16.20;99.90;;;15.99;100.00;100033.78;5033674;28;20489;-77
2023/07/27 07:18:05;;;;;;;5.20;3.15;;;16.10;99.90;;;15.84;100.00;100030.94;5021780;28;20072;-77
2023/07/27 07:20:31;;;;;;;5.50;3.03;;;16.00;99.90;;;15.80;100.00;100020.50;5003070;28;20041;-77
2023/07/27 07:22:57;;;;;;;4.22;2.88;;;16.00;99.90;;;15.60;100.00;100009.38;5020635;28;20050;-76
2023/07/27 07:25:23;;;;;;;5.60;3.38;;;15.90;99.90;;;15.51;100.00;100020.03;5027373;28;20043;-75
2023/07/27 07:27:49;;;;;;;6.85;3.65;;;15.70;99.90;;;15.34;100.00;100014.72;5023827;28;20058;-77
2023/07/27 07:30:15;;;;;;;6.25;2.92;;;15.60;99.90;;;15.24;100.00;100007.22;5020840;28;20057;-78
2023/07/27 07:32:40;;;;;;;6.80;3.42;;;15.50;99.90;;;15.10;100.00;100001.34;5028117;28;20183;-79
2023/07/27 07:35:07;;;;;;;6.88;3.47;;;15.30;99.90;;;15.07;100.00;99997.19;5022793;28;20037;-79
2023/07/27 07:37:33;;;;;;;5.70;3.60;;;15.20;99.90;;;14.90;100.00;99975.38;5006671;28;20049;-77
2023/07/27 07:39:58;;;;;;;7.43;4.20;;;15.10;99.90;;;14.92;100.00;99972.38;5018254;28;20298;-77
2023/07/27 07:42:24;;;;;;;7.80;3.63;;;15.10;99.90;;;14.89;100.00;99968.22;5026074;28;20033;-75
2023/07/27 07:44:50;;;;;;;8.48;3.47;;;15.10;99.90;;;14.98;100.00;99967.72;5038351;28;20051;-77
2023/07/27 07:47:16;;;;;;;6.15;3.75;;;15.10;99.90;;;14.90;100.00;99974.53;5029371;28;20060;-78
2023/07/27 07:49:41;;;;;;;6.03;3.65;;;15.10;99.90;;;14.99;100.00;99966.66;5031340;28;20044;-77
2023/07/27 07:52:09;;;;;;;5.47;3.78;;;15.10;99.90;;;14.96;100.00;99949.59;5032661;28;20101;-77
2023/07/27 07:54:35;;;;;;;5.03;3.42;;;15.00;99.90;;;14.93;100.00;99946.56;5023119;28;20097;-77
2023/07/27 07:57:00;;;;;;;11.68;4.40;;;15.00;99.90;;;14.88;100.00;99952.03;5016529;28;20158;-76
2023/07/27 07:59:27;;;;;;;6.20;4.03;;;15.00;99.90;;;14.84;100.00;99937.97;5013245;28;20057;-78
2023/07/27 08:01:56;;;;;;;6.95;3.63;;;15.00;99.90;;;14.84;100.00;99932.47;5027377;28;20040;-75
2023/07/27 08:04:21;;;;;;;6.72;3.78;;;14.90;99.90;;;14.71;100.00;99921.94;5029194;28;20071;-76
2023/07/27 08:06:47;;;;;;;7.95;4.32;;;14.90;99.90;;;14.74;100.00;99911.25;5016189;28;20053;-76
2023/07/27 08:09:14;;;;;;;9.00;4.53;;;15.00;99.90;;;14.70;100.00;99906.53;5021410;28;20045;-77
2023/07/27 08:11:45;;;;;;;8.40;4.10;;;15.00;99.90;;;14.80;100.00;99904.72;5045395;28;20048;-75
2023/07/27 08:14:17;;;;;;;7.70;4.38;;;15.00;99.90;;;14.81;100.00;99892.63;5033824;28;20071;-78
2023/07/27 08:16:43;;;;;;;8.85;4.35;;;15.10;99.90;;;14.75;100.00;99903.88;5024180;28;20041;-76
2023/07/27 08:19:10;;;;;;;6.72;4.50;;;15.10;99.90;;;14.81;100.00;99887.16;5023697;28;20037;-77
2023/07/27 08:21:36;;;;;;;10.35;5.40;;;15.10;99.90;;;14.89;100.00;99885.03;5019130;28;20055;-76
2023/07/27 08:24:02;;;;;;;6.55;4.60;;;15.20;99.90;;;14.87;100.00;99885.28;5015483;28;20040;-77
2023/07/27 08:26:29;;;;;;;9.30;4.20;;;15.20;99.90;;;14.89;100.00;99882.28;5015100;28;20042;-76
2023/07/27 08:28:55;;;;;;;11.93;4.15;;;15.30;99.90;;;14.95;100.00;99867.47;5015345;28;20136;-75
2023/07/27 08:31:23;;;;;;;7.22;4.20;;;15.30;99.90;;;15.26;100.00;99877.81;5018054;28;20180;-76
2023/07/27 08:33:48;;;;;;;7.50;3.83;;;15.40;99.90;;;15.42;100.00;99865.78;5016278;28;20124;-76
2023/07/27 08:36:14;;;;;;;9.20;4.70;;;15.60;99.90;;;15.43;100.00;99874.88;5031115;28;20091;-78
2023/07/27 08:38:42;;;;;;;6.65;4.03;;;15.70;99.90;;;15.51;100.00;99863.34;5014779;28;20038;-77
2023/07/27 08:41:07;;;;;;;7.47;4.00;;;15.80;99.90;;;15.54;100.00;99851.81;5018804;28;20164;-79
2023/07/27 08:43:36;;;;;;;6.65;4.25;;;15.90;99.90;;;15.48;100.00;99852.91;5025353;28;20537;-79
2023/07/27 08:46:04;;;;;;;6.53;4.45;;;15.80;99.90;;;15.51;100.00;99841.38;5032170;28;20077;-81
2023/07/27 08:48:31;;;;;;;;;;;15.90;99.90;;;15.70;100.00;99829.88;5021128;28;20041;-78
2023/07/27 08:50:57;;;;;;;6.72;4.13;;;15.90;99.90;;;15.87;100.00;99830.44;5017072;28;19924;-79
2023/07/27 08:53:23;;;;;;;6.82;3.70;;;16.10;99.90;;;15.98;100.00;99849.78;5020947;28;20093;-81
2023/07/27 08:55:49;;;;;;;5.90;3.95;;;16.20;99.90;;;16.03;100.00;99847.84;5022682;28;20064;-79
2023/07/27 08:58:17;;;;;;;8.15;4.35;;;16.30;99.90;;;16.16;100.00;99843.72;5023459;28;20451;-80
2023/07/27 09:00:46;;;;;;;8.25;3.97;;;16.40;99.90;;;16.01;100.00;99833.53;5031324;28;20025;-77
2023/07/27 09:03:14;;;;;;;8.25;4.30;;;16.30;99.90;;;15.93;100.00;99832.16;5020846;28;20097;-79
2023/07/27 09:05:43;;;;;;;8.07;4.27;;;16.30;99.90;;;16.04;100.00;99832.16;5028529;28;20061;-77
2023/07/27 09:08:14;;;;;;;7.15;4.05;;;16.30;99.90;;;15.87;100.00;99826.88;5020880;28;20080;-77
2023/07/27 09:10:43;;;;;;;5.72;4.30;;;16.30;99.90;;;15.66;100.00;99819.44;5023214;28;20038;-76
2023/07/27 09:13:09;;;;;;;7.35;4.30;;;16.10;99.90;;;15.80;100.00;99821.66;5019803;28;20045;-76
2023/07/27 09:15:42;;;;;;;6.72;4.38;;;16.20;99.90;;;16.01;100.00;99821.72;5015447;28;20045;-77
2023/07/27 09:18:10;;;;;;;5.60;3.95;;;16.20;99.90;;;15.73;100.00;99824.66;5030049;28;20120;-76
2023/07/27 09:20:38;;;;;;;6.90;4.63;;;16.20;99.90;;;15.89;100.00;99822.78;5031554;28;20048;-75
2023/07/27 09:23:07;;;;;;;5.93;3.88;;;16.20;99.90;;;16.02;100.00;99818.69;5019198;28;20397;-77
2023/07/27 09:25:33;;;;;;;6.75;4.15;;;16.40;99.90;;;16.13;100.00;99824.19;5022749;28;20060;-78
2023/07/27 09:28:00;;;;;;;9.57;4.50;;;16.40;99.90;;;16.16;100.00;99823.66;5028303;28;20052;-77
2023/07/27 09:30:26;;;;;;;5.93;3.63;;;16.50;99.90;;;16.26;100.00;99829.16;5028613;28;20401;-78
2023/07/27 09:32:53;;;;;;;7.85;3.63;;;16.60;99.90;;;16.30;100.00;99845.94;5016299;28;20056;-79
2023/07/27 09:35:21;;;;;;;8.18;3.83;;;16.60;99.90;;;16.53;100.00;99844.56;5023501;28;20029;-76
2023/07/27 09:37:51;;;;;;;9.18;3.90;;;16.70;99.90;;;16.53;100.00;99837.13;5019073;28;20041;-75
2023/07/27 09:40:24;;;;;;;7.55;4.25;;;16.80;99.90;;;16.57;100.00;99840.13;5015165;28;20037;-76
2023/07/27 09:42:51;;;;;;;6.53;4.15;;;16.90;99.90;;;16.40;100.00;99845.94;5023671;28;20147;-77
2023/07/27 09:45:19;;;;;;;6.03;4.03;;;16.80;99.90;;;16.30;100.00;99832.19;5034138;28;20029;-77
2023/07/27 09:47:54;;;;;;;7.00;4.07;;;16.70;99.90;;;15.83;100.00;99826.59;5018265;28;20056;-78
2023/07/27 09:50:22;;;;;;;7.15;4.28;;;16.40;99.90;;;15.46;100.00;99794.63;5025032;28;20053;-78
2023/07/27 09:52:48;;;;;;;9.10;5.07;;;16.00;99.90;;;15.38;100.00;99774.84;5015419;28;20092;-75
2023/07/27 09:55:15;;;;;;;10.38;5.18;;;15.80;99.90;;;15.25;100.00;99753.34;5016495;28;20499;-77
2023/07/27 09:57:43;;;;;;;8.85;5.60;;;15.70;99.90;;;15.10;100.00;99727.47;5020444;28;20041;-81
2023/07/27 10:00:10;;;;;;;11.07;5.88;;;15.50;99.90;;;14.91;100.00;99691.44;5033038;28;20060;-79
2023/07/27 10:02:39;;;;;;;9.27;6.20;;;15.40;99.90;;;14.99;100.00;99673.59;5023029;28;20459;-79
2023/07/27 10:05:05;;;;;;;7.97;6.03;;;15.30;99.90;;;14.84;100.00;99640.59;5033961;28;20096;-78
2023/07/27 10:07:31;;;;;;;12.02;7.05;;;15.20;99.90;;;14.81;100.00;99620.00;5031626;28;20061;-78
2023/07/27 10:10:31;;;;;;;9.82;6.63;;;15.10;99.90;;;14.81;100.00;99593.38;5024800;28;20453;-77